Time;durP1;ratioP1;P1;durP2;ratioP2;P2;SDS_P1;SDS_P2;PMS_P1;PMS_P2;Temp;Humidity;BMP_temperature;BMP_pressure;BME280_temperature;BME280_humidity;BME280_pressure;Samples;Min_cycle;Max_cycle;Signal;HPM_P1;HPM_P2
2022/01/20 09:03:43;;;;;;;18.00;6.63;;;1.60;95.10;;;;;;5103517;27;20394;-49
2022/01/20 09:06:11;;;;;;;21.52;6.80;;;1.50;95.40;;;;;;5073625;28;20041;-53
2022/01/20 09:08:55;;;;;;;20.25;6.13;;;1.50;95.30;;;;;;5064724;28;20033;-53
2022/01/20 09:11:25;;;;;;;13.38;6.30;;;1.60;95.30;;;;;;5068195;28;20123;-52
2022/01/20 09:16:45;;;;;;;18.02;4.40;;;1.80;94.60;;;;;;5068054;28;20045;-53
2022/01/20 09:19:19;;;;;;;12.75;3.28;;;1.90;93.70;;;;;;5052679;28;20049;-53
2022/01/20 09:21:58;;;;;;;16.70;3.72;;;2.10;93.40;;;;;;5067941;28;20385;-53
2022/01/20 09:24:26;;;;;;;15.15;3.25;;;2.20;93.20;;;;;;5062817;28;20447;-53
2022/01/20 09:26:55;;;;;;;17.45;3.50;;;2.30;92.50;;;;;;5082566;28;20074;-53
2022/01/20 09:29:22;;;;;;;15.10;2.95;;;2.40;92.20;;;;;;5079405;28;20037;-50
2022/01/20 09:31:51;;;;;;;13.70;2.78;;;2.50;92.00;;;;;;5067227;28;20074;-49
2022/01/20 09:34:24;;;;;;;9.90;3.83;;;2.60;91.60;;;;;;5061446;28;20040;-49
2022/01/20 09:36:51;;;;;;;13.18;2.90;;;2.60;91.30;;;;;;5074107;28;20052;-48
2022/01/20 09:39:18;;;;;;;13.50;2.72;;;2.80;90.80;;;;;;5071827;28;20052;-49
2022/01/20 09:41:58;;;;;;;14.15;3.10;;;2.80;90.80;;;;;;5067627;28;20048;-47
2022/01/20 09:44:27;;;;;;;17.40;3.97;;;2.90;90.80;;;;;;5067352;28;20041;-48
2022/01/20 09:46:54;;;;;;;13.38;3.15;;;2.90;90.50;;;;;;5067282;28;20040;-48
2022/01/20 09:49:59;;;;;;;12.52;2.65;;;3.00;90.40;;;;;;5068584;28;20048;-48
2022/01/20 09:52:34;;;;;;;14.02;3.92;;;3.00;90.00;;;;;;5069086;28;20059;-49
2022/01/20 09:55:18;;;;;;;14.30;2.90;;;3.10;89.70;;;;;;5074636;28;20446;-52
2022/01/20 09:57:46;;;;;;;20.15;3.83;;;3.10;90.20;;;;;;5068849;28;20132;-48
2022/01/20 10:00:13;;;;;;;9.95;2.65;;;3.10;90.00;;;;;;5070601;28;20051;-48
2022/01/20 10:02:46;;;;;;;17.35;4.07;;;3.20;90.20;;;;;;5066096;28;20102;-48
2022/01/20 10:05:13;;;;;;;16.58;3.50;;;3.20;90.10;;;;;;5066856;28;20408;-48
2022/01/20 10:07:46;;;;;;;14.00;3.40;;;3.20;88.60;;;;;;5068050;28;20511;-44
2022/01/20 10:10:26;;;;;;;20.63;3.70;;;3.30;89.10;;;;;;5067158;28;20055;-48
2022/01/20 10:13:13;;;;;;;11.65;2.95;;;3.30;89.70;;;;;;5064972;28;20103;-48
2022/01/20 10:15:58;;;;;;;11.33;2.60;;;3.30;89.00;;;;;;5055082;28;20071;-46
2022/01/20 10:18:43;;;;;;;16.48;3.88;;;3.40;89.40;;;;;;5051251;28;20048;-48
2022/01/20 10:21:09;;;;;;;11.27;3.05;;;3.40;88.80;;;;;;5051878;28;20421;-50
2022/01/20 10:23:47;;;;;;;15.18;3.28;;;3.40;88.10;;;;;;5049886;28;20063;-50
2022/01/20 10:26:46;;;;;;;16.63;5.78;;;3.50;87.10;;;;;;5053635;28;20053;-53
2022/01/20 10:29:13;;;;;;;11.20;3.35;;;3.50;87.90;;;;;;5053456;28;20497;-49
2022/01/20 10:31:40;;;;;;;13.40;3.85;;;3.60;87.10;;;;;;5059631;28;20044;-48
2022/01/20 10:34:08;;;;;;;13.85;3.83;;;3.60;86.70;;;;;;5057343;28;20079;-48
2022/01/20 10:36:40;;;;;;;14.32;3.33;;;3.60;87.40;;;;;;5053449;28;20492;-46
2022/01/20 10:39:33;;;;;;;15.15;4.45;;;3.60;86.60;;;;;;5053144;28;20045;-48
2022/01/20 10:42:00;;;;;;;15.75;4.47;;;3.70;86.30;;;;;;5037038;28;20075;-47
2022/01/20 10:44:27;;;;;;;12.60;3.13;;;3.70;86.30;;;;;;5053820;28;20040;-49
2022/01/20 10:47:14;;;;;;;12.40;4.70;;;3.80;85.30;;;;;;5048362;28;20488;-47
2022/01/20 10:49:41;;;;;;;12.95;4.00;;;3.90;84.50;;;;;;5053080;28;20041;-48
2022/01/20 10:52:12;;;;;;;18.23;7.25;;;3.80;84.90;;;;;;5053085;28;20041;-48
2022/01/20 10:54:39;;;;;;;14.63;3.60;;;3.90;84.20;;;;;;5052827;28;20087;-47
2022/01/20 10:57:08;;;;;;;14.90;5.35;;;3.90;83.50;;;;;;5052984;28;20059;-49
2022/01/20 10:59:35;;;;;;;20.05;5.82;;;3.90;83.10;;;;;;5052734;28;20052;-46
2022/01/20 11:02:03;;;;;;;30.00;12.30;;;4.00;83.40;;;;;;5052567;28;20057;-44
2022/01/20 11:04:30;;;;;;;18.25;4.07;;;4.00;83.70;;;;;;5059580;28;20403;-51
2022/01/20 11:06:59;;;;;;;15.45;3.25;;;4.00;81.10;;;;;;5052965;28;20051;-47
2022/01/20 11:09:32;;;;;;;11.50;3.08;;;4.10;81.80;;;;;;5060306;28;20072;-50
2022/01/20 11:12:17;;;;;;;9.27;2.35;;;4.10;82.00;;;;;;5054620;28;20139;-50
2022/01/20 11:15:01;;;;;;;16.92;3.00;;;4.10;80.20;;;;;;5052880;28;20048;-48
2022/01/20 11:17:29;;;;;;;10.15;3.05;;;4.20;80.90;;;;;;5047509;28;20037;-47
2022/01/20 11:19:55;;;;;;;20.00;3.13;;;4.20;80.60;;;;;;5046122;28;20377;-51
2022/01/20 11:22:23;;;;;;;14.43;2.42;;;4.20;80.10;;;;;;5059580;28;20052;-48
2022/01/20 11:25:09;;;;;;;14.93;3.13;;;4.30;80.40;;;;;;5047717;28;20446;-48
2022/01/20 11:27:46;;;;;;;12.27;2.55;;;4.30;80.90;;;;;;5052199;28;20087;-45
2022/01/20 11:30:33;;;;;;;14.40;2.40;;;4.30;79.20;;;;;;5052572;28;20565;-44
2022/01/20 11:33:17;;;;;;;11.88;2.67;;;4.30;79.00;;;;;;5049761;28;20063;-45
2022/01/20 11:35:46;;;;;;;16.20;2.55;;;4.40;80.20;;;;;;5052278;28;20407;-51
2022/01/20 11:38:13;;;;;;;11.40;2.42;;;4.40;77.70;;;;;;5053202;28;20037;-50
2022/01/20 11:40:40;;;;;;;10.10;2.38;;;4.40;76.80;;;;;;5053548;28;20037;-48
2022/01/20 11:43:09;;;;;;;7.50;2.20;;;4.40;76.70;;;;;;5053329;28;20045;-48
2022/01/20 11:45:36;;;;;;;13.05;2.13;;;4.40;77.30;;;;;;5053406;28;20461;-46
2022/01/20 11:48:03;;;;;;;10.40;2.30;;;4.40;76.60;;;;;;5051958;28;20143;-50
2022/01/20 11:50:30;;;;;;;8.75;2.08;;;4.40;76.60;;;;;;5053200;28;20036;-46
2022/01/20 11:52:57;;;;;;;14.60;3.28;;;4.40;76.20;;;;;;5053169;28;20037;-50
2022/01/20 11:55:28;;;;;;;11.82;2.90;;;4.40;75.60;;;;;;5052860;28;20045;-48
2022/01/20 11:57:54;;;;;;;16.40;2.63;;;4.50;75.60;;;;;;5053405;28;20040;-46
2022/01/20 12:00:22;;;;;;;10.52;2.40;;;4.50;75.40;;;;;;5053451;28;20033;-45
2022/01/20 12:02:48;;;;;;;13.05;2.38;;;4.50;74.90;;;;;;5053408;28;20056;-48
2022/01/20 12:05:29;;;;;;;13.32;3.10;;;4.60;75.20;;;;;;5054903;28;20064;-52
2022/01/20 12:08:10;;;;;;;14.85;3.15;;;4.60;75.20;;;;;;5051958;28;20139;-49
2022/01/20 12:10:38;;;;;;;15.60;3.28;;;4.60;74.70;;;;;;5053246;28;20184;-48
2022/01/20 12:13:05;;;;;;;12.82;2.47;;;4.70;75.10;;;;;;5053163;28;20044;-46
2022/01/20 12:15:37;;;;;;;10.52;2.65;;;4.70;75.20;;;;;;5052169;28;20071;-47
2022/01/20 12:18:04;;;;;;;9.23;2.72;;;4.80;73.90;;;;;;5046862;28;20044;-45
2022/01/20 12:20:32;;;;;;;9.75;2.30;;;4.80;73.60;;;;;;5047090;28;20116;-50
2022/01/20 12:22:59;;;;;;;14.70;2.55;;;4.80;73.60;;;;;;5046680;28;20049;-45
2022/01/20 12:25:26;;;;;;;14.55;2.80;;;4.80;73.50;;;;;;5046639;28;20216;-46
2022/01/20 12:27:53;;;;;;;8.98;2.22;;;4.90;73.30;;;;;;5046495;28;20051;-48
2022/01/20 12:30:20;;;;;;;11.75;2.60;;;4.90;72.60;;;;;;5046571;28;20140;-48
2022/01/20 12:32:46;;;;;;;8.05;2.05;;;4.90;72.10;;;;;;5052864;28;20491;-48
2022/01/20 12:35:13;;;;;;;11.77;2.88;;;4.90;72.80;;;;;;5053066;28;20040;-50
2022/01/20 12:37:40;;;;;;;14.15;2.75;;;4.90;72.10;;;;;;5052579;28;20045;-46
2022/01/20 12:40:11;;;;;;;13.52;2.40;;;4.90;72.30;;;;;;5053080;28;20119;-47
2022/01/20 12:42:41;;;;;;;14.73;2.60;;;5.00;73.00;;;;;;5052769;28;20052;-48
2022/01/20 12:47:54;;;;;;;16.38;2.50;;;5.00;71.70;;;;;;5052613;28;20045;-50
2022/01/20 12:50:21;;;;;;;9.93;2.25;;;5.00;71.60;;;;;;5052717;28;20041;-45
2022/01/20 12:52:48;;;;;;;9.90;2.25;;;5.00;70.80;;;;;;5052578;28;20051;-49
2022/01/20 12:55:14;;;;;;;12.05;2.13;;;5.00;70.20;;;;;;5052900;28;20045;-44
2022/01/20 12:57:42;;;;;;;10.00;1.95;;;5.00;70.30;;;;;;5052611;28;20048;-46
2022/01/20 13:00:09;;;;;;;7.35;1.50;;;5.00;70.90;;;;;;5052671;28;20396;-45
2022/01/20 13:02:36;;;;;;;9.23;2.00;;;5.10;70.60;;;;;;5052424;28;20123;-48
2022/01/20 13:05:02;;;;;;;11.25;2.30;;;5.10;71.30;;;;;;5055218;28;20075;-48
2022/01/20 13:07:30;;;;;;;8.50;1.73;;;5.20;70.00;;;;;;5052549;28;20498;-44
2022/01/20 13:10:21;;;;;;;13.45;1.98;;;5.20;69.10;;;;;;5052522;28;20052;-45
2022/01/20 13:12:48;;;;;;;8.32;2.10;;;5.30;69.80;;;;;;5052432;28;20132;-44
2022/01/20 13:15:14;;;;;;;9.63;2.55;;;5.40;69.20;;;;;;5052439;28;20048;-43
2022/01/20 13:17:41;;;;;;;10.30;2.42;;;5.60;69.40;;;;;;5052411;28;20076;-47
2022/01/20 13:20:08;;;;;;;9.60;1.88;;;5.60;68.70;;;;;;5052398;28;20041;-49
2022/01/20 13:22:39;;;;;;;11.07;2.10;;;5.70;68.20;;;;;;5052267;28;20041;-50
2022/01/20 13:25:06;;;;;;;10.20;2.10;;;5.60;68.20;;;;;;5052255;28;20128;-48
2022/01/20 13:27:33;;;;;;;11.18;1.77;;;5.60;69.00;;;;;;5052425;28;20083;-47
2022/01/20 13:30:00;;;;;;;8.70;2.15;;;5.60;67.60;;;;;;5053208;28;20061;-45
2022/01/20 13:32:26;;;;;;;12.85;1.80;;;5.60;67.10;;;;;;5052036;28;20061;-50
2022/01/20 13:34:53;;;;;;;10.93;1.63;;;5.60;67.30;;;;;;5057201;28;20135;-49
2022/01/20 13:37:20;;;;;;;11.07;2.38;;;5.50;67.10;;;;;;5051971;28;20087;-48
2022/01/20 13:39:47;;;;;;;8.52;2.03;;;5.60;68.50;;;;;;5052278;28;20091;-48
2022/01/20 13:45:12;;;;;;;8.85;2.13;;;5.60;68.90;;;;;;5052246;28;20040;-50
2022/01/20 13:47:39;;;;;;;7.45;1.80;;;5.60;69.00;;;;;;5052183;28;20045;-48
2022/01/20 13:50:06;;;;;;;7.72;2.30;;;5.70;68.70;;;;;;5055208;28;20193;-54
2022/01/20 13:52:32;;;;;;;10.00;2.13;;;5.70;68.50;;;;;;5055038;28;20124;-54
2022/01/20 13:55:01;;;;;;;9.98;1.90;;;5.70;68.80;;;;;;5055360;28;20116;-53
2022/01/20 13:57:37;;;;;;;9.45;1.80;;;5.70;67.70;;;;;;5065712;28;20045;-54
2022/01/20 14:00:04;;;;;;;14.52;2.08;;;5.60;66.40;;;;;;5057881;28;20491;-50
2022/01/20 14:02:37;;;;;;;11.13;1.77;;;5.60;66.70;;;;;;5057996;28;20056;-54
2022/01/20 14:05:04;;;;;;;8.48;1.88;;;5.60;66.80;;;;;;5057042;28;20033;-53
2022/01/20 14:07:31;;;;;;;13.35;2.30;;;5.60;67.10;;;;;;5055149;28;20041;-49
2022/01/20 14:09:57;;;;;;;10.38;1.98;;;5.50;66.70;;;;;;5055294;28;20124;-51
2022/01/20 14:12:24;;;;;;;12.60;2.45;;;5.50;67.30;;;;;;5055282;28;20037;-50
2022/01/20 14:14:51;;;;;;;10.98;2.35;;;5.50;66.60;;;;;;5055229;28;20115;-52
2022/01/20 14:17:18;;;;;;;13.75;2.17;;;5.50;66.60;;;;;;5055188;28;20048;-48
2022/01/20 14:19:46;;;;;;;10.73;2.25;;;5.40;66.10;;;;;;5055171;28;20033;-51
2022/01/20 14:22:13;;;;;;;11.70;2.15;;;5.40;66.20;;;;;;5054833;28;20116;-49
2022/01/20 14:24:40;;;;;;;9.73;2.17;;;5.40;67.10;;;;;;5055010;28;20045;-55
2022/01/20 14:27:14;;;;;;;11.93;1.55;;;5.40;67.60;;;;;;5054876;28;20045;-48
2022/01/20 14:29:42;;;;;;;13.73;2.50;;;5.40;66.40;;;;;;5054911;28;20145;-51
2022/01/20 14:32:09;;;;;;;12.57;2.20;;;5.30;65.80;;;;;;5055015;28;20044;-49
2022/01/20 14:34:36;;;;;;;15.38;2.47;;;5.30;66.70;;;;;;5056051;28;20082;-51
2022/01/20 14:37:02;;;;;;;12.13;2.25;;;5.30;66.50;;;;;;5054877;28;20037;-52
2022/01/20 14:39:29;;;;;;;10.85;2.33;;;5.30;67.20;;;;;;5053339;28;20041;-51
2022/01/20 14:41:56;;;;;;;11.00;2.20;;;5.30;66.50;;;;;;5054526;28;20107;-54
2022/01/20 14:44:23;;;;;;;13.10;2.42;;;5.30;66.40;;;;;;5053359;28;20099;-48
2022/01/20 14:46:50;;;;;;;11.85;2.20;;;5.20;66.50;;;;;;5057279;28;20124;-52
2022/01/20 14:49:18;;;;;;;17.40;2.78;;;5.20;66.50;;;;;;5055887;28;20055;-49
2022/01/20 14:51:45;;;;;;;10.27;2.40;;;5.20;67.10;;;;;;5055636;28;20404;-53
2022/01/20 14:54:12;;;;;;;11.57;2.60;;;5.20;67.80;;;;;;5055848;28;20059;-51
2022/01/20 14:56:39;;;;;;;11.95;2.15;;;5.20;67.00;;;;;;5054922;28;20040;-53
2022/01/20 14:59:06;;;;;;;12.73;2.65;;;5.20;67.60;;;;;;5056612;28;20421;-53
2022/01/20 15:01:33;;;;;;;11.13;3.17;;;5.20;67.50;;;;;;5055547;28;20400;-50
2022/01/20 15:03:59;;;;;;;9.80;2.67;;;5.20;67.30;;;;;;5056909;28;20041;-49
2022/01/20 15:06:26;;;;;;;14.82;3.35;;;5.20;67.30;;;;;;5054037;28;20072;-53
2022/01/20 15:08:53;;;;;;;12.23;2.25;;;5.20;68.10;;;;;;5054286;28;20043;-49
2022/01/20 15:11:20;;;;;;;11.07;2.10;;;5.10;67.10;;;;;;5054148;28;20045;-54
2022/01/20 15:13:47;;;;;;;17.25;4.97;;;5.10;67.80;;;;;;5052789;28;20059;-52
2022/01/20 15:16:13;;;;;;;15.07;3.90;;;5.10;68.00;;;;;;5054087;28;20036;-52
2022/01/20 15:18:40;;;;;;;22.98;4.85;;;5.00;67.90;;;;;;5054144;28;20064;-48
2022/01/20 15:21:07;;;;;;;23.55;6.38;;;5.00;68.60;;;;;;5053855;28;20041;-51
2022/01/20 15:23:34;;;;;;;15.13;5.88;;;4.90;68.80;;;;;;5054029;28;20492;-50
2022/01/20 15:26:01;;;;;;;13.20;3.72;;;4.90;68.20;;;;;;5054010;28;20037;-51
2022/01/20 15:28:30;;;;;;;14.70;4.40;;;4.80;67.60;;;;;;5053995;28;20045;-52
2022/01/20 15:30:57;;;;;;;21.33;6.20;;;4.90;67.90;;;;;;5052277;28;20059;-50
2022/01/20 15:33:23;;;;;;;17.75;5.03;;;4.80;67.90;;;;;;5056963;28;20484;-50
2022/01/20 15:35:50;;;;;;;15.43;4.90;;;4.80;67.40;;;;;;5053875;28;20037;-50
2022/01/20 15:38:17;;;;;;;17.73;4.20;;;4.80;68.10;;;;;;5053914;28;20033;-53
2022/01/20 15:40:44;;;;;;;15.50;4.30;;;4.90;67.90;;;;;;5053520;28;20039;-52
2022/01/20 15:43:11;;;;;;;23.92;7.68;;;4.90;67.90;;;;;;5053570;28;20112;-52
2022/01/20 15:45:38;;;;;;;40.50;15.05;;;4.90;68.30;;;;;;5053547;28;20114;-53
2022/01/20 15:48:04;;;;;;;29.77;8.02;;;4.90;68.20;;;;;;5053550;28;20128;-54
2022/01/20 15:50:32;;;;;;;21.25;6.25;;;4.90;68.40;;;;;;5053404;28;20041;-51
2022/01/20 15:53:05;;;;;;;18.27;5.25;;;4.90;67.50;;;;;;5056403;28;20132;-50
2022/01/20 15:55:32;;;;;;;14.10;5.53;;;4.90;68.30;;;;;;5053553;28;20045;-50
2022/01/20 15:57:59;;;;;;;22.55;5.57;;;4.80;68.40;;;;;;5052066;28;20037;-51
2022/01/20 16:00:26;;;;;;;11.95;2.65;;;4.80;68.20;;;;;;5053379;28;20120;-50
2022/01/20 16:02:53;;;;;;;17.65;3.88;;;4.80;68.10;;;;;;5054046;28;20041;-53
2022/01/20 16:05:21;;;;;;;24.38;4.57;;;4.70;68.40;;;;;;5053128;28;20107;-52
2022/01/20 16:07:48;;;;;;;11.90;2.88;;;4.70;68.80;;;;;;5053001;28;20045;-53
2022/01/20 16:10:14;;;;;;;11.27;2.97;;;4.70;68.80;;;;;;5052960;28;20036;-49
2022/01/20 16:12:41;;;;;;;13.85;2.92;;;4.70;68.10;;;;;;5051065;28;20049;-52
2022/01/20 16:15:08;;;;;;;11.50;2.75;;;4.70;68.70;;;;;;5052865;28;20403;-53
2022/01/20 16:17:35;;;;;;;13.43;3.13;;;4.70;69.10;;;;;;5052867;28;20047;-54
2022/01/20 16:20:02;;;;;;;11.50;2.97;;;4.70;68.20;;;;;;5053003;28;20399;-53
2022/01/20 16:22:29;;;;;;;12.60;4.47;;;4.60;68.10;;;;;;5052773;28;20041;-51
2022/01/20 16:24:55;;;;;;;16.33;4.53;;;4.50;68.60;;;;;;5052514;28;20053;-52
2022/01/20 16:27:24;;;;;;;11.20;5.10;;;4.50;68.90;;;;;;5034901;28;20728;-53
2022/01/20 16:29:51;;;;;;;14.80;2.88;;;4.40;69.00;;;;;;5052662;28;20493;-50
2022/01/20 16:32:21;;;;;;;11.75;2.80;;;4.40;69.30;;;;;;5053664;28;20481;-50
2022/01/20 16:34:47;;;;;;;10.65;3.03;;;4.40;69.20;;;;;;5053744;28;20094;-53
2022/01/20 16:37:18;;;;;;;9.52;2.85;;;4.40;69.30;;;;;;5052515;28;20064;-51
2022/01/20 16:39:45;;;;;;;11.45;2.55;;;4.40;69.30;;;;;;5052349;28;20484;-50
2022/01/20 16:42:13;;;;;;;14.13;3.10;;;4.40;69.30;;;;;;5052293;28;20037;-52
2022/01/20 16:44:39;;;;;;;10.50;2.30;;;4.40;69.20;;;;;;5052487;28;20071;-52
2022/01/20 16:47:07;;;;;;;14.38;2.95;;;4.40;69.00;;;;;;5052455;28;20067;-48
2022/01/20 16:49:34;;;;;;;17.60;2.97;;;4.40;69.50;;;;;;5052520;28;20059;-52
2022/01/20 16:52:01;;;;;;;10.95;2.40;;;4.40;68.80;;;;;;5052138;28;20111;-49
2022/01/20 16:54:28;;;;;;;12.52;2.70;;;4.50;69.20;;;;;;5052304;28;20116;-50
2022/01/20 16:56:55;;;;;;;11.02;2.78;;;4.40;69.20;;;;;;5052232;28;20047;-53
2022/01/20 16:59:21;;;;;;;17.40;3.05;;;4.40;69.50;;;;;;5052555;28;20511;-55
2022/01/20 17:01:49;;;;;;;16.48;3.13;;;4.40;69.70;;;;;;5052051;28;20360;-49
2022/01/20 17:04:16;;;;;;;17.92;3.30;;;4.40;69.70;;;;;;5051331;28;20049;-50
2022/01/20 17:06:42;;;;;;;14.15;3.20;;;4.40;69.50;;;;;;5051693;28;20053;-52
2022/01/20 17:09:09;;;;;;;19.58;3.63;;;4.30;69.80;;;;;;5052192;28;20044;-52
2022/01/20 17:11:36;;;;;;;12.75;3.13;;;4.30;69.40;;;;;;5052277;28;20094;-53
2022/01/20 17:14:03;;;;;;;14.93;3.20;;;4.30;69.30;;;;;;5052405;28;20040;-54
2022/01/20 17:16:30;;;;;;;12.95;3.13;;;4.30;69.90;;;;;;5054020;28;20120;-51
2022/01/20 17:18:56;;;;;;;14.10;2.70;;;4.30;70.00;;;;;;5055456;28;20451;-53
2022/01/20 17:21:23;;;;;;;10.88;2.92;;;4.30;69.80;;;;;;5052596;28;20133;-52
2022/01/20 17:23:50;;;;;;;11.07;3.25;;;4.30;69.50;;;;;;5059557;28;20087;-53
2022/01/20 17:26:17;;;;;;;17.45;2.97;;;4.30;69.80;;;;;;5056153;28;20041;-54
2022/01/20 17:28:43;;;;;;;11.18;2.80;;;4.30;69.60;;;;;;5055675;28;20576;-52
2022/01/20 17:31:11;;;;;;;11.85;2.83;;;4.20;69.50;;;;;;5056889;28;20407;-53
2022/01/20 17:33:38;;;;;;;13.65;2.72;;;4.20;69.40;;;;;;5058368;28;20049;-51
2022/01/20 17:36:04;;;;;;;10.32;2.42;;;4.20;69.40;;;;;;5055627;28;20404;-49
2022/01/20 17:38:32;;;;;;;12.00;2.40;;;4.10;69.40;;;;;;5057783;28;20837;-53
2022/01/20 17:40:59;;;;;;;16.95;5.90;;;4.10;70.10;;;;;;5059563;28;20395;-54
2022/01/20 17:43:25;;;;;;;25.25;7.88;;;4.10;69.30;;;;;;5058071;28;20397;-54
2022/01/20 17:45:52;;;;;;;51.33;15.60;;;4.10;69.20;;;;;;5057873;28;20488;-53
2022/01/20 17:48:19;;;;;;;43.35;12.88;;;4.10;69.30;;;;;;5056745;28;20353;-51
2022/01/20 17:50:47;;;;;;;83.55;21.70;;;4.00;69.50;;;;;;5060310;28;20075;-52
2022/01/20 17:53:13;;;;;;;67.28;18.42;;;4.00;69.90;;;;;;5057814;28;20052;-51
2022/01/20 17:55:40;;;;;;;51.28;14.80;;;4.00;69.60;;;;;;5055624;28;20045;-51
2022/01/20 17:58:07;;;;;;;70.80;22.73;;;4.00;70.40;;;;;;5055941;28;20052;-56
2022/01/20 18:00:34;;;;;;;27.42;7.50;;;4.00;69.80;;;;;;5055978;28;20086;-54
2022/01/20 18:03:02;;;;;;;56.00;17.77;;;4.00;69.70;;;;;;5061058;28;20053;-51
2022/01/20 18:05:28;;;;;;;26.67;7.35;;;4.00;70.00;;;;;;5060038;28;20099;-51
2022/01/20 18:07:55;;;;;;;71.32;21.35;;;4.00;70.10;;;;;;5055669;28;20408;-54
2022/01/20 18:10:22;;;;;;;66.65;20.90;;;4.00;70.20;;;;;;5055620;28;20047;-56
2022/01/20 18:12:50;;;;;;;63.95;16.90;;;4.00;70.90;;;;;;5055759;28;20041;-52
2022/01/20 18:15:17;;;;;;;63.40;18.52;;;4.00;69.40;;;;;;5055552;28;20041;-52
2022/01/20 18:17:45;;;;;;;59.60;16.67;;;4.10;69.90;;;;;;5056147;28;20039;-54
2022/01/20 18:20:12;;;;;;;45.85;13.25;;;4.10;69.30;;;;;;5055617;28;20041;-54
2022/01/20 18:22:38;;;;;;;44.22;15.00;;;4.10;69.40;;;;;;5055449;28;20408;-52
2022/01/20 18:25:05;;;;;;;53.17;19.52;;;4.20;69.50;;;;;;5055462;28;20048;-50
2022/01/20 18:27:32;;;;;;;53.75;22.40;;;4.20;69.40;;;;;;5055495;28;20040;-51
2022/01/20 18:29:59;;;;;;;43.53;16.35;;;4.20;69.20;;;;;;5054445;28;20041;-53
2022/01/20 18:32:26;;;;;;;27.67;12.05;;;4.20;69.40;;;;;;5055333;28;20045;-51
2022/01/20 18:34:56;;;;;;;27.98;10.20;;;4.20;69.20;;;;;;5052645;28;20488;-53
2022/01/20 18:37:23;;;;;;;18.27;6.68;;;4.20;69.40;;;;;;5055013;28;20461;-56
2022/01/20 18:39:50;;;;;;;11.60;4.32;;;4.20;69.60;;;;;;5055226;28;20041;-48
2022/01/20 18:42:16;;;;;;;15.38;3.88;;;4.30;68.90;;;;;;5055314;28;20091;-52
2022/01/20 18:44:43;;;;;;;13.90;2.67;;;4.20;69.00;;;;;;5054060;28;20556;-53
2022/01/20 18:47:12;;;;;;;14.05;3.15;;;4.30;68.30;;;;;;5055013;28;20140;-54
2022/01/20 18:49:39;;;;;;;12.75;3.28;;;4.30;69.10;;;;;;5054957;28;20124;-53
2022/01/20 18:52:06;;;;;;;12.82;2.55;;;4.30;68.80;;;;;;5055215;28;20052;-51
2022/01/20 18:54:33;;;;;;;10.27;2.85;;;4.30;68.30;;;;;;5054929;28;20041;-50
2022/01/20 18:57:00;;;;;;;11.27;3.20;;;4.30;69.00;;;;;;5054816;28;20041;-50
2022/01/20 18:59:27;;;;;;;14.07;2.72;;;4.30;68.20;;;;;;5054951;28;20048;-52
2022/01/20 19:01:54;;;;;;;9.88;2.67;;;4.30;68.20;;;;;;5048258;28;20060;-50
2022/01/20 19:04:27;;;;;;;11.13;2.53;;;4.40;68.40;;;;;;5055867;28;20052;-50
2022/01/20 19:06:54;;;;;;;11.93;2.78;;;4.30;67.90;;;;;;5054718;28;20389;-53
2022/01/20 19:09:23;;;;;;;8.32;2.53;;;4.30;67.80;;;;;;5054752;28;20372;-51
2022/01/20 19:11:49;;;;;;;11.75;3.22;;;4.40;68.10;;;;;;5054411;28;20114;-54
2022/01/20 19:14:16;;;;;;;15.75;3.22;;;4.40;67.70;;;;;;5054597;28;20041;-54
2022/01/20 19:16:43;;;;;;;12.35;3.13;;;4.30;68.20;;;;;;5054539;28;20043;-54
2022/01/20 19:19:10;;;;;;;12.55;2.88;;;4.40;68.10;;;;;;5053300;28;20123;-51
2022/01/20 19:21:37;;;;;;;14.15;2.75;;;4.40;68.40;;;;;;5048211;28;20045;-53
2022/01/20 19:24:04;;;;;;;8.18;2.60;;;4.40;68.00;;;;;;5054415;28;20044;-52
2022/01/20 19:26:31;;;;;;;14.30;2.97;;;4.30;67.80;;;;;;5054210;28;20439;-51
2022/01/20 19:28:58;;;;;;;8.27;2.85;;;4.30;68.10;;;;;;5054252;28;20580;-50
2022/01/20 19:31:24;;;;;;;10.80;3.28;;;4.30;68.40;;;;;;5054280;28;20404;-51
2022/01/20 19:33:51;;;;;;;14.10;3.00;;;4.40;68.20;;;;;;5059460;28;20124;-49
2022/01/20 19:36:18;;;;;;;9.93;2.60;;;4.40;68.20;;;;;;5054089;28;20140;-49
2022/01/20 19:38:45;;;;;;;10.05;2.78;;;4.40;69.00;;;;;;5053950;28;20070;-53
2022/01/20 19:41:14;;;;;;;13.52;3.08;;;4.40;68.00;;;;;;5054030;28;20041;-51
2022/01/20 19:43:41;;;;;;;10.40;2.53;;;4.40;68.40;;;;;;5053952;28;20033;-52
2022/01/20 19:46:08;;;;;;;7.70;2.35;;;4.40;67.90;;;;;;5053232;28;20103;-54
2022/01/20 19:48:37;;;;;;;10.82;4.03;;;4.40;68.20;;;;;;5053784;28;20055;-53
2022/01/20 19:51:03;;;;;;;10.23;2.60;;;4.40;68.10;;;;;;5052487;28;20053;-49
2022/01/20 19:53:30;;;;;;;13.85;3.13;;;4.40;67.70;;;;;;5053810;28;20045;-59
2022/01/20 19:55:57;;;;;;;14.35;3.13;;;4.40;67.80;;;;;;5053518;28;20102;-52
2022/01/20 19:58:24;;;;;;;11.85;2.95;;;4.30;68.30;;;;;;5061147;28;20033;-54
2022/01/20 20:00:51;;;;;;;10.48;2.78;;;4.30;67.80;;;;;;5058261;28;20048;-52
2022/01/20 20:03:18;;;;;;;12.38;2.78;;;4.20;67.90;;;;;;5057105;28;20049;-52
2022/01/20 20:05:45;;;;;;;9.02;2.58;;;4.20;67.90;;;;;;5052837;28;20041;-52
2022/01/20 20:08:12;;;;;;;8.57;2.30;;;4.20;67.80;;;;;;5051506;28;20053;-49
2022/01/20 20:10:39;;;;;;;13.13;2.88;;;4.10;67.80;;;;;;5060044;28;20445;-51
2022/01/20 20:13:05;;;;;;;8.65;2.72;;;4.10;67.90;;;;;;5052920;28;20386;-52
2022/01/20 20:15:32;;;;;;;11.27;2.88;;;4.10;68.20;;;;;;5055376;28;20041;-50
2022/01/20 20:18:01;;;;;;;18.50;3.05;;;4.00;68.70;;;;;;5058475;28;20040;-52
2022/01/20 20:20:27;;;;;;;12.27;3.08;;;4.00;68.90;;;;;;5052951;28;20072;-51
2022/01/20 20:22:54;;;;;;;7.00;2.50;;;4.00;68.40;;;;;;5051849;28;20552;-52
2022/01/20 20:25:22;;;;;;;11.98;2.80;;;4.00;68.60;;;;;;5052839;28;20125;-50
2022/01/20 20:27:49;;;;;;;7.40;2.30;;;3.90;68.50;;;;;;5055648;28;20041;-52
2022/01/20 20:30:16;;;;;;;8.45;2.45;;;4.00;68.40;;;;;;5058002;28;20076;-53
2022/01/20 20:32:42;;;;;;;13.45;2.83;;;4.00;68.50;;;;;;5055767;28;20048;-54
2022/01/20 20:35:09;;;;;;;9.45;2.67;;;4.00;68.40;;;;;;5053526;28;20041;-56
2022/01/20 20:37:36;;;;;;;10.93;2.83;;;4.00;68.60;;;;;;5051320;28;20040;-51
2022/01/20 20:40:03;;;;;;;11.07;2.70;;;4.00;68.60;;;;;;5052672;28;20051;-51
2022/01/20 20:42:32;;;;;;;13.80;3.38;;;3.90;68.20;;;;;;5052713;28;20503;-50
2022/01/20 20:44:59;;;;;;;11.98;2.83;;;3.90;68.80;;;;;;5056652;28;20068;-52
2022/01/20 20:47:26;;;;;;;13.05;2.80;;;3.80;68.50;;;;;;5052527;28;20098;-51
2022/01/20 20:49:53;;;;;;;14.93;3.25;;;3.80;69.30;;;;;;5052202;28;20055;-54
2022/01/20 20:52:19;;;;;;;10.75;3.38;;;3.80;69.20;;;;;;5054528;28;20111;-53
2022/01/20 20:54:46;;;;;;;13.68;4.22;;;3.70;69.50;;;;;;5052589;28;20496;-49
2022/01/20 20:57:13;;;;;;;13.93;3.47;;;3.70;70.10;;;;;;5050829;28;20064;-53
2022/01/20 20:59:40;;;;;;;13.63;3.83;;;3.60;69.40;;;;;;5060798;28;20044;-52
2022/01/20 21:02:09;;;;;;;10.25;3.70;;;3.60;70.10;;;;;;5052433;28;20492;-54
2022/01/20 21:04:36;;;;;;;12.07;3.58;;;3.60;69.90;;;;;;5054057;28;20502;-52
2022/01/20 21:07:11;;;;;;;18.83;3.60;;;3.50;70.00;;;;;;5057711;28;20045;-55
2022/01/20 21:09:38;;;;;;;14.60;3.45;;;3.50;70.10;;;;;;5057379;28;20051;-52
2022/01/20 21:12:06;;;;;;;12.88;4.00;;;3.50;70.40;;;;;;5048061;28;20045;-53
2022/01/20 21:14:35;;;;;;;14.55;3.60;;;3.50;70.20;;;;;;5052421;28;20048;-52
2022/01/20 21:17:02;;;;;;;11.32;3.42;;;3.50;70.10;;;;;;5051331;28;20095;-55
2022/01/20 21:19:29;;;;;;;15.25;3.47;;;3.40;70.80;;;;;;5055793;28;20033;-55
2022/01/20 21:21:56;;;;;;;13.32;3.60;;;3.40;70.30;;;;;;5052565;28;20506;-49
2022/01/20 21:24:23;;;;;;;14.30;4.38;;;3.40;70.90;;;;;;5052796;28;20043;-52
2022/01/20 21:26:50;;;;;;;11.25;3.88;;;3.40;70.90;;;;;;5052371;28;20075;-53
2022/01/20 21:29:16;;;;;;;11.40;3.70;;;3.30;70.30;;;;;;5052497;28;20127;-49
2022/01/20 21:31:43;;;;;;;11.70;3.63;;;3.30;70.60;;;;;;5051318;28;20044;-52
2022/01/20 21:34:11;;;;;;;15.57;4.10;;;3.30;70.30;;;;;;5052472;28;20118;-50
2022/01/20 21:36:37;;;;;;;17.23;4.15;;;3.30;70.00;;;;;;5051441;28;20369;-49
2022/01/20 21:39:04;;;;;;;17.15;4.10;;;3.30;70.50;;;;;;5052458;28;20083;-50
2022/01/20 21:41:32;;;;;;;12.73;3.53;;;3.40;70.30;;;;;;5052432;28;20124;-54
2022/01/20 21:43:59;;;;;;;12.57;3.97;;;3.40;70.80;;;;;;5050686;28;20140;-55
2022/01/20 21:46:26;;;;;;;12.07;4.35;;;3.40;70.30;;;;;;5051354;28;20403;-53
2022/01/20 21:48:55;;;;;;;12.77;3.15;;;3.40;70.20;;;;;;5052268;28;20393;-53
2022/01/20 21:51:22;;;;;;;15.93;4.15;;;3.50;69.80;;;;;;5052018;28;20037;-53
2022/01/20 21:53:49;;;;;;;19.80;4.57;;;3.50;70.00;;;;;;5051177;28;20041;-52
2022/01/20 21:56:16;;;;;;;12.80;4.20;;;3.50;69.50;;;;;;5050825;28;20477;-53
2022/01/20 21:58:43;;;;;;;17.45;4.35;;;3.50;69.60;;;;;;5052620;28;20032;-51
2022/01/20 22:01:10;;;;;;;13.32;3.63;;;3.60;69.90;;;;;;5051657;28;20523;-52
2022/01/20 22:03:37;;;;;;;14.10;4.20;;;3.60;70.00;;;;;;5049600;28;20059;-55
2022/01/20 22:06:04;;;;;;;16.23;4.63;;;3.60;69.80;;;;;;5045925;28;20069;-50